AMV105 EPGD-LZKZ
Flight info
| Callsign | AMV105 |
|---|---|
| Flight time | 0h 56m |
| Altitude | 36000 |
| Route | IRLUN N133 LENOV DCT RAZEC |
| Aircraft | B38M/M-SDE1FGHILORVWXY/HB1 |
Departure
| Time | 2026-04-23 17:50 |
|---|---|
| Airport | Gdańsk Lech Wałęsa Airport (EPGD) |
Arrival
| Time | 2026-04-23 18:46 |
|---|---|
| Airport | Košice International Airport (LZKZ) |
| Time | Latitude | Longitude | Altitude | Speed | Heading |
|---|---|---|---|---|---|
| 2026-04-23 17:04 | 54.38156 | 18.46442 | 462 ft | 0 kts | 23° |
| 2026-04-23 17:40 | 54.38154 | 18.46440 | 462 ft | 3 kts | 22° |
| 2026-04-23 17:40 | 54.38130 | 18.46430 | 460 ft | 4 kts | 352° |
| 2026-04-23 17:41 | 54.38109 | 18.46448 | 461 ft | 4 kts | 304° |
| 2026-04-23 17:41 | 54.38104 | 18.46461 | 460 ft | 1 kts | 294° |
| 2026-04-23 17:44 | 54.38108 | 18.46447 | 460 ft | 3 kts | 294° |
| 2026-04-23 17:45 | 54.38119 | 18.46405 | 461 ft | 5 kts | 294° |
| 2026-04-23 17:45 | 54.38160 | 18.46237 | 462 ft | 10 kts | 292° |
| 2026-04-23 17:45 | 54.38166 | 18.46118 | 460 ft | 11 kts | 231° |
| 2026-04-23 17:46 | 54.38122 | 18.45870 | 459 ft | 16 kts | 295° |
| 2026-04-23 17:46 | 54.38141 | 18.45679 | 457 ft | 14 kts | 243° |
| 2026-04-23 17:46 | 54.38114 | 18.45642 | 457 ft | 0 kts | 202° |
| 2026-04-23 17:48 | 54.38108 | 18.45637 | 457 ft | 2 kts | 203° |
| 2026-04-23 17:48 | 54.38084 | 18.45619 | 457 ft | 5 kts | 205° |
| 2026-04-23 17:48 | 54.38047 | 18.45589 | 457 ft | 7 kts | 205° |
| 2026-04-23 17:49 | 54.38010 | 18.45609 | 457 ft | 4 kts | 115° |
| 2026-04-23 17:49 | 54.38010 | 18.45610 | 457 ft | 0 kts | 115° |
| 2026-04-23 17:49 | 54.37938 | 18.45898 | 459 ft | 65 kts | 113° |
| 2026-04-23 17:50 | 54.37654 | 18.47042 | 461 ft | 141 kts | 112° |
| 2026-04-23 17:50 | 54.36714 | 18.50795 | 1609 ft | 184 kts | 110° |
| 2026-04-23 17:50 | 54.36214 | 18.52928 | 2369 ft | 198 kts | 109° |
| 2026-04-23 17:51 | 54.35692 | 18.55222 | 2870 ft | 221 kts | 108° |
| 2026-04-23 17:51 | 54.35133 | 18.57754 | 3447 ft | 237 kts | 107° |
| 2026-04-23 17:51 | 54.33686 | 18.62992 | 5049 ft | 254 kts | 119° |
| 2026-04-23 17:52 | 54.32325 | 18.65093 | 5536 ft | 279 kts | 154° |
| 2026-04-23 17:52 | 54.28500 | 18.64644 | 6905 ft | 289 kts | 210° |
| 2026-04-23 17:52 | 54.26632 | 18.63212 | 7616 ft | 298 kts | 207° |
| 2026-04-23 17:53 | 54.22503 | 18.61962 | 9233 ft | 312 kts | 182° |
| 2026-04-23 17:53 | 54.20316 | 18.61920 | 10031 ft | 317 kts | 182° |
| 2026-04-23 17:53 | 54.18076 | 18.61886 | 10581 ft | 330 kts | 182° |
| 2026-04-23 17:54 | 54.15713 | 18.61858 | 10950 ft | 348 kts | 182° |
| 2026-04-23 17:54 | 54.13248 | 18.61832 | 11459 ft | 361 kts | 182° |
| 2026-04-23 17:54 | 54.08119 | 18.61783 | 12867 ft | 374 kts | 182° |
| 2026-04-23 17:55 | 54.02832 | 18.61734 | 14333 ft | 386 kts | 182° |
| 2026-04-23 17:55 | 54.00166 | 18.61709 | 15043 ft | 391 kts | 181° |
| 2026-04-23 17:55 | 53.97430 | 18.61683 | 15754 ft | 396 kts | 181° |
| 2026-04-23 17:56 | 53.94650 | 18.61658 | 16464 ft | 402 kts | 181° |
| 2026-04-23 17:56 | 53.88986 | 18.61608 | 17836 ft | 413 kts | 181° |
| 2026-04-23 17:56 | 53.86090 | 18.61583 | 18493 ft | 418 kts | 181° |
| 2026-04-23 17:57 | 53.83163 | 18.61556 | 19101 ft | 423 kts | 181° |
| 2026-04-23 17:57 | 53.80209 | 18.61530 | 19658 ft | 428 kts | 181° |
| 2026-04-23 17:57 | 53.74249 | 18.62378 | 20833 ft | 434 kts | 159° |
| 2026-04-23 17:58 | 53.71444 | 18.64255 | 21359 ft | 437 kts | 155° |
| 2026-04-23 17:58 | 53.68614 | 18.66242 | 21903 ft | 442 kts | 154° |
| 2026-04-23 17:58 | 53.65766 | 18.68256 | 22461 ft | 446 kts | 157° |
| 2026-04-23 17:58 | 53.62864 | 18.69951 | 22997 ft | 451 kts | 159° |
| 2026-04-23 17:59 | 53.59887 | 18.71676 | 23525 ft | 455 kts | 159° |
| 2026-04-23 17:59 | 53.56885 | 18.73442 | 23988 ft | 459 kts | 159° |
| 2026-04-23 17:59 | 53.53862 | 18.75229 | 24437 ft | 462 kts | 159° |
| 2026-04-23 17:59 | 53.50816 | 18.77033 | 24880 ft | 465 kts | 159° |
| 2026-04-23 18:00 | 53.47756 | 18.78842 | 25350 ft | 468 kts | 159° |
| 2026-04-23 18:00 | 53.44672 | 18.80663 | 25742 ft | 472 kts | 159° |
| 2026-04-23 18:00 | 53.41566 | 18.82495 | 26191 ft | 475 kts | 159° |
| 2026-04-23 18:00 | 53.38447 | 18.84332 | 26628 ft | 478 kts | 159° |
| 2026-04-23 18:01 | 53.35293 | 18.86186 | 27039 ft | 482 kts | 158° |
| 2026-04-23 18:01 | 53.32115 | 18.88051 | 27445 ft | 485 kts | 158° |
| 2026-04-23 18:01 | 53.28965 | 18.89896 | 27841 ft | 489 kts | 158° |
| 2026-04-23 18:01 | 53.25738 | 18.91784 | 28230 ft | 492 kts | 158° |
| 2026-04-23 18:02 | 53.23559 | 18.93058 | 28455 ft | 494 kts | 158° |
| 2026-04-23 18:02 | 53.19244 | 18.95575 | 28994 ft | 497 kts | 158° |
| 2026-04-23 18:02 | 53.15974 | 18.97479 | 29355 ft | 501 kts | 158° |
| 2026-04-23 18:02 | 53.12675 | 18.99396 | 29717 ft | 504 kts | 158° |
| 2026-04-23 18:03 | 53.09354 | 19.01323 | 30083 ft | 507 kts | 158° |
| 2026-04-23 18:03 | 53.06013 | 19.03259 | 30400 ft | 510 kts | 158° |
| 2026-04-23 18:03 | 53.02655 | 19.05202 | 30708 ft | 512 kts | 158° |
| 2026-04-23 18:03 | 52.99288 | 19.07146 | 31026 ft | 514 kts | 158° |
| 2026-04-23 18:04 | 52.95900 | 19.09100 | 31381 ft | 516 kts | 158° |
| 2026-04-23 18:04 | 52.92551 | 19.11028 | 31650 ft | 519 kts | 158° |
| 2026-04-23 18:04 | 52.89089 | 19.13017 | 31988 ft | 521 kts | 158° |
| 2026-04-23 18:04 | 52.85657 | 19.14986 | 32280 ft | 523 kts | 158° |
| 2026-04-23 18:05 | 52.82262 | 19.16929 | 32572 ft | 525 kts | 158° |
| 2026-04-23 18:05 | 52.78801 | 19.18908 | 32859 ft | 527 kts | 158° |
| 2026-04-23 18:05 | 52.75325 | 19.20892 | 33141 ft | 530 kts | 158° |
| 2026-04-23 18:05 | 52.71829 | 19.22884 | 33424 ft | 532 kts | 158° |
| 2026-04-23 18:06 | 52.68340 | 19.24868 | 33735 ft | 534 kts | 158° |
| 2026-04-23 18:06 | 52.64827 | 19.26864 | 34107 ft | 533 kts | 158° |
| 2026-04-23 18:06 | 52.61330 | 19.28846 | 34517 ft | 530 kts | 158° |
| 2026-04-23 18:06 | 52.57843 | 19.30819 | 34878 ft | 529 kts | 158° |
| 2026-04-23 18:07 | 52.54417 | 19.32755 | 35277 ft | 528 kts | 158° |
| 2026-04-23 18:07 | 52.50951 | 19.34710 | 35629 ft | 527 kts | 158° |
| 2026-04-23 18:07 | 52.47488 | 19.36660 | 35965 ft | 526 kts | 158° |
| 2026-04-23 18:07 | 52.44030 | 19.38604 | 36076 ft | 526 kts | 158° |
| 2026-04-23 18:08 | 52.41735 | 19.39892 | 36057 ft | 524 kts | 158° |
| 2026-04-23 18:08 | 52.33696 | 19.44395 | 36035 ft | 521 kts | 157° |
| 2026-04-23 18:09 | 52.26840 | 19.48220 | 36034 ft | 521 kts | 157° |
| 2026-04-23 18:09 | 52.20033 | 19.52006 | 36034 ft | 521 kts | 158° |
| 2026-04-23 18:10 | 52.13176 | 19.55808 | 36030 ft | 521 kts | 158° |
| 2026-04-23 18:10 | 52.06316 | 19.59599 | 36027 ft | 519 kts | 157° |
| 2026-04-23 18:11 | 51.99490 | 19.63359 | 36018 ft | 519 kts | 157° |
| 2026-04-23 18:11 | 51.92698 | 19.67088 | 36032 ft | 519 kts | 158° |
| 2026-04-23 18:12 | 51.85860 | 19.70830 | 36038 ft | 519 kts | 158° |
| 2026-04-23 18:12 | 51.79012 | 19.74566 | 36030 ft | 519 kts | 158° |
| 2026-04-23 18:13 | 51.72146 | 19.78300 | 36049 ft | 519 kts | 158° |
| 2026-04-23 18:13 | 51.65380 | 19.81967 | 36023 ft | 519 kts | 158° |
| 2026-04-23 18:14 | 51.59643 | 19.85068 | 36026 ft | 519 kts | 158° |
| 2026-04-23 18:14 | 51.51698 | 19.89348 | 36017 ft | 518 kts | 158° |
| 2026-04-23 18:15 | 51.44865 | 19.93017 | 36018 ft | 518 kts | 158° |
| 2026-04-23 18:15 | 51.38029 | 19.96675 | 36016 ft | 518 kts | 158° |
| 2026-04-23 18:16 | 51.31200 | 20.00319 | 36034 ft | 518 kts | 158° |
| 2026-04-23 18:16 | 51.24421 | 20.03925 | 36010 ft | 516 kts | 158° |
| 2026-04-23 18:17 | 51.14211 | 20.09334 | 36016 ft | 516 kts | 158° |
| 2026-04-23 18:17 | 51.07401 | 20.12928 | 36008 ft | 515 kts | 158° |
| 2026-04-23 18:18 | 51.00597 | 20.16507 | 36012 ft | 516 kts | 158° |
| 2026-04-23 18:18 | 50.93800 | 20.20072 | 36044 ft | 514 kts | 158° |
| 2026-04-23 18:19 | 50.87006 | 20.23625 | 36006 ft | 515 kts | 158° |
| 2026-04-23 18:19 | 50.80255 | 20.27143 | 36007 ft | 515 kts | 158° |
| 2026-04-23 18:20 | 50.73454 | 20.30678 | 35983 ft | 515 kts | 158° |
| 2026-04-23 18:20 | 50.66670 | 20.34193 | 35998 ft | 512 kts | 158° |
| 2026-04-23 18:21 | 50.59898 | 20.37690 | 35993 ft | 512 kts | 158° |
| 2026-04-23 18:21 | 50.54270 | 20.40589 | 36026 ft | 513 kts | 158° |
| 2026-04-23 18:22 | 50.50883 | 20.42330 | 35830 ft | 510 kts | 158° |
| 2026-04-23 18:22 | 50.47499 | 20.44069 | 34982 ft | 514 kts | 158° |
| 2026-04-23 18:22 | 50.42958 | 20.46397 | 33706 ft | 523 kts | 157° |
| 2026-04-23 18:22 | 50.39496 | 20.48164 | 32887 ft | 523 kts | 158° |
| 2026-04-23 18:23 | 50.37165 | 20.49354 | 32527 ft | 519 kts | 158° |
| 2026-04-23 18:23 | 50.30450 | 20.52777 | 31699 ft | 504 kts | 158° |
| 2026-04-23 18:24 | 50.23808 | 20.56153 | 30510 ft | 501 kts | 158° |
| 2026-04-23 18:24 | 50.20500 | 20.57831 | 29892 ft | 500 kts | 158° |
| 2026-04-23 18:24 | 50.17207 | 20.59500 | 29281 ft | 496 kts | 158° |
| 2026-04-23 18:25 | 50.10697 | 20.62788 | 28183 ft | 487 kts | 159° |
| 2026-04-23 18:25 | 50.07503 | 20.64399 | 27637 ft | 479 kts | 159° |
| 2026-04-23 18:25 | 50.04405 | 20.65959 | 27141 ft | 471 kts | 159° |
| 2026-04-23 18:25 | 50.01299 | 20.67521 | 26609 ft | 468 kts | 159° |
| 2026-04-23 18:26 | 49.98205 | 20.69074 | 26090 ft | 466 kts | 159° |
| 2026-04-23 18:26 | 49.95127 | 20.70618 | 25575 ft | 464 kts | 159° |
| 2026-04-23 18:26 | 49.92072 | 20.72149 | 25049 ft | 457 kts | 159° |
| 2026-04-23 18:26 | 49.89082 | 20.73644 | 24567 ft | 448 kts | 159° |
| 2026-04-23 18:27 | 49.86124 | 20.75122 | 24086 ft | 446 kts | 159° |
| 2026-04-23 18:27 | 49.83175 | 20.76592 | 23592 ft | 445 kts | 159° |
| 2026-04-23 18:27 | 49.80230 | 20.78060 | 23066 ft | 443 kts | 159° |
| 2026-04-23 18:27 | 49.77331 | 20.79503 | 22965 ft | 433 kts | 159° |
| 2026-04-23 18:28 | 49.74489 | 20.80916 | 22999 ft | 436 kts | 160° |
| 2026-04-23 18:28 | 49.71603 | 20.82349 | 22979 ft | 436 kts | 160° |
| 2026-04-23 18:28 | 49.68716 | 20.83780 | 22984 ft | 436 kts | 160° |
| 2026-04-23 18:28 | 49.65827 | 20.85210 | 22969 ft | 435 kts | 159° |
| 2026-04-23 18:29 | 49.62956 | 20.86630 | 22988 ft | 433 kts | 159° |
| 2026-04-23 18:29 | 49.60095 | 20.88043 | 22986 ft | 432 kts | 159° |
| 2026-04-23 18:29 | 49.57230 | 20.89456 | 22987 ft | 432 kts | 159° |
| 2026-04-23 18:29 | 49.54366 | 20.90868 | 22982 ft | 432 kts | 159° |
| 2026-04-23 18:30 | 49.51501 | 20.92277 | 22987 ft | 432 kts | 160° |
| 2026-04-23 18:30 | 49.48637 | 20.93685 | 22984 ft | 432 kts | 160° |
| 2026-04-23 18:30 | 49.45814 | 20.95071 | 22990 ft | 432 kts | 159° |
| 2026-04-23 18:30 | 49.42947 | 20.96477 | 22982 ft | 432 kts | 160° |
| 2026-04-23 18:31 | 49.40084 | 20.97878 | 22882 ft | 429 kts | 160° |
| 2026-04-23 18:31 | 49.37235 | 20.99271 | 22025 ft | 433 kts | 160° |
| 2026-04-23 18:31 | 49.34369 | 21.00665 | 21159 ft | 430 kts | 161° |
| 2026-04-23 18:31 | 49.31471 | 21.01756 | 20326 ft | 426 kts | 165° |
| 2026-04-23 18:32 | 49.28599 | 21.02794 | 19535 ft | 422 kts | 165° |
| 2026-04-23 18:32 | 49.25753 | 21.03843 | 18777 ft | 419 kts | 165° |
| 2026-04-23 18:32 | 49.22940 | 21.04889 | 17989 ft | 414 kts | 165° |
| 2026-04-23 18:32 | 49.20151 | 21.05927 | 17146 ft | 409 kts | 165° |
| 2026-04-23 18:33 | 49.17406 | 21.06948 | 16351 ft | 403 kts | 165° |
| 2026-04-23 18:33 | 49.14730 | 21.07947 | 15567 ft | 399 kts | 165° |
| 2026-04-23 18:33 | 49.12055 | 21.08941 | 14800 ft | 395 kts | 165° |
| 2026-04-23 18:33 | 49.09397 | 21.09912 | 14076 ft | 390 kts | 165° |
| 2026-04-23 18:34 | 49.06773 | 21.10870 | 13311 ft | 386 kts | 165° |
| 2026-04-23 18:34 | 49.04177 | 21.11818 | 12539 ft | 381 kts | 165° |
| 2026-04-23 18:34 | 49.01612 | 21.12753 | 11802 ft | 376 kts | 165° |
| 2026-04-23 18:34 | 48.99100 | 21.13667 | 11347 ft | 365 kts | 165° |
| 2026-04-23 18:35 | 48.96647 | 21.14335 | 10917 ft | 353 kts | 176° |
| 2026-04-23 18:35 | 48.94225 | 21.14390 | 10530 ft | 342 kts | 179° |
| 2026-04-23 18:35 | 48.91881 | 21.14440 | 10207 ft | 331 kts | 179° |
| 2026-04-23 18:35 | 48.89640 | 21.14498 | 10022 ft | 314 kts | 179° |
| 2026-04-23 18:36 | 48.87543 | 21.14559 | 9831 ft | 299 kts | 179° |
| 2026-04-23 18:36 | 48.85487 | 21.14621 | 9562 ft | 294 kts | 179° |
| 2026-04-23 18:36 | 48.83414 | 21.14582 | 9241 ft | 301 kts | 188° |
| 2026-04-23 18:36 | 48.81359 | 21.13925 | 8899 ft | 304 kts | 195° |
| 2026-04-23 18:37 | 48.79298 | 21.13177 | 8594 ft | 305 kts | 195° |
| 2026-04-23 18:37 | 48.77239 | 21.12445 | 8326 ft | 304 kts | 195° |
| 2026-04-23 18:37 | 48.75183 | 21.11724 | 7992 ft | 302 kts | 195° |
| 2026-04-23 18:37 | 48.73148 | 21.11012 | 7718 ft | 299 kts | 195° |
| 2026-04-23 18:38 | 48.71121 | 21.10308 | 7416 ft | 298 kts | 195° |
| 2026-04-23 18:38 | 48.69098 | 21.09605 | 7116 ft | 297 kts | 195° |
| 2026-04-23 18:38 | 48.67105 | 21.08912 | 6795 ft | 290 kts | 195° |
| 2026-04-23 18:38 | 48.65188 | 21.08248 | 6486 ft | 284 kts | 195° |
| 2026-04-23 18:39 | 48.63286 | 21.07590 | 6186 ft | 277 kts | 195° |
| 2026-04-23 18:39 | 48.61407 | 21.06941 | 5908 ft | 280 kts | 195° |
| 2026-04-23 18:39 | 48.59483 | 21.06276 | 5642 ft | 286 kts | 195° |
| 2026-04-23 18:39 | 48.57534 | 21.05603 | 5339 ft | 288 kts | 195° |
| 2026-04-23 18:40 | 48.55598 | 21.04935 | 5142 ft | 280 kts | 195° |
| 2026-04-23 18:40 | 48.53743 | 21.04388 | 5009 ft | 264 kts | 183° |
| 2026-04-23 18:40 | 48.51998 | 21.04846 | 4844 ft | 248 kts | 152° |
| 2026-04-23 18:40 | 48.50668 | 21.06347 | 4599 ft | 237 kts | 123° |
| 2026-04-23 18:41 | 48.49881 | 21.08479 | 4229 ft | 231 kts | 101° |
| 2026-04-23 18:41 | 48.49400 | 21.10781 | 3981 ft | 228 kts | 99° |
| 2026-04-23 18:41 | 48.48970 | 21.13077 | 3786 ft | 227 kts | 95° |
| 2026-04-23 18:41 | 48.48980 | 21.15311 | 3624 ft | 209 kts | 65° |
| 2026-04-23 18:42 | 48.49712 | 21.17069 | 3578 ft | 195 kts | 37° |
| 2026-04-23 18:42 | 48.50817 | 21.18227 | 3464 ft | 193 kts | 25° |
| 2026-04-23 18:42 | 48.52008 | 21.19037 | 3271 ft | 183 kts | 16° |
| 2026-04-23 18:42 | 48.53197 | 21.19544 | 3074 ft | 168 kts | 11° |
| 2026-04-23 18:43 | 48.54247 | 21.19919 | 2887 ft | 145 kts | 9° |
| 2026-04-23 18:43 | 48.55183 | 21.20241 | 2721 ft | 131 kts | 9° |
| 2026-04-23 18:43 | 48.56055 | 21.20543 | 2561 ft | 126 kts | 9° |
| 2026-04-23 18:43 | 48.56905 | 21.20840 | 2385 ft | 126 kts | 9° |
| 2026-04-23 18:44 | 48.57761 | 21.21148 | 2127 ft | 127 kts | 10° |
| 2026-04-23 18:44 | 48.58630 | 21.21477 | 1978 ft | 131 kts | 11° |
| 2026-04-23 18:44 | 48.59519 | 21.21767 | 1819 ft | 134 kts | 9° |
| 2026-04-23 18:44 | 48.60441 | 21.22036 | 1624 ft | 136 kts | 8° |
| 2026-04-23 18:45 | 48.61373 | 21.22422 | 1377 ft | 141 kts | 13° |
| 2026-04-23 18:45 | 48.62341 | 21.22740 | 1253 ft | 143 kts | 11° |
| 2026-04-23 18:45 | 48.63311 | 21.23095 | 1072 ft | 144 kts | 12° |
| 2026-04-23 18:45 | 48.64271 | 21.23414 | 935 ft | 136 kts | 11° |
| 2026-04-23 18:46 | 48.65163 | 21.23727 | 771 ft | 124 kts | 11° |
| 2026-04-23 18:46 | 48.65824 | 21.23950 | 760 ft | 65 kts | 13° |
| 2026-04-23 18:46 | 48.66170 | 21.24069 | 757 ft | 48 kts | 12° |
| 2026-04-23 18:46 | 48.66483 | 21.24180 | 758 ft | 46 kts | 13° |
| 2026-04-23 18:47 | 48.66791 | 21.24289 | 762 ft | 45 kts | 13° |
| 2026-04-23 18:47 | 48.67075 | 21.24388 | 762 ft | 28 kts | 12° |
| 2026-04-23 18:47 | 48.67235 | 21.24368 | 759 ft | 21 kts | 294° |
| 2026-04-23 18:47 | 48.67253 | 21.24257 | 758 ft | 0 kts | 283° |
| 2026-04-23 18:48 | 48.67253 | 21.24255 | 758 ft | 1 kts | 283° |
| 2026-04-23 18:48 | 48.67257 | 21.24230 | 760 ft | 4 kts | 283° |
| 2026-04-23 18:49 | 48.67249 | 21.24187 | 760 ft | 5 kts | 226° |
| 2026-04-23 18:49 | 48.67210 | 21.24161 | 760 ft | 7 kts | 196° |
| 2026-04-23 18:49 | 48.67173 | 21.24104 | 758 ft | 9 kts | 265° |
| 2026-04-23 18:49 | 48.67187 | 21.24003 | 759 ft | 9 kts | 283° |
| 2026-04-23 18:50 | 48.67191 | 21.23975 | 755 ft | 0 kts | 283° |
| 2026-04-23 18:50 | 48.67193 | 21.23964 | 756 ft | 2 kts | 283° |
| 2026-04-23 18:50 | 48.67199 | 21.23925 | 759 ft | 5 kts | 283° |
| 2026-04-23 18:51 | 48.67212 | 21.23873 | 758 ft | 2 kts | 311° |
| 2026-04-23 18:51 | 48.67231 | 21.23864 | 759 ft | 4 kts | 359° |
| 2026-04-23 18:51 | 48.67256 | 21.23870 | 760 ft | 0 kts | 13° |
| 2026-04-23 18:51 | 48.67263 | 21.23872 | 760 ft | 1 kts | 12° |
| 2026-04-23 18:52 | 48.67269 | 21.23874 | 760 ft | 0 kts | 12° |